Terminal Aerodrome Forecast
Issued by NWS Riverton, WY

Home | Current Version | Previous Version | Text Only | Print | Product List | Glossary On
Versions: 1 2 3 4 5 6 7 8 9 10 11 12
000
FTUS45 KRIW 251120
TAFRIW
TAF
KRIW 251120Z 2512/2612 VRB06KT P6SM SCT120 BKN200
     FM252100 29010KT P6SM VCSH SCT040 BKN060
     FM260300 01011KT 6SM -RA BR BKN030
     FM261000 32010KT P6SM SCT030 BKN050=

USA.gov is the U.S. government's official web portal to all federal, state and local government web resources and services.